sensor_id;sensor_type;location;lat;lon;timestamp;pressure;altitude;pressure_sealevel;temperature;humidity
59487;BME280;45298;54.918;73.504;2023-02-23T00:00:29;99108.09;;;-3.84;81.46
59487;BME280;45298;54.918;73.504;2023-02-23T00:03:00;99117.72;;;-3.92;81.48
59487;BME280;45298;54.918;73.504;2023-02-23T00:05:34;99102.63;;;-4.17;81.77
59487;BME280;45298;54.918;73.504;2023-02-23T00:08:03;99144.16;;;-4.23;82.03
59487;BME280;45298;54.918;73.504;2023-02-23T00:10:32;99128.69;;;-4.28;82.20
59487;BME280;45298;54.918;73.504;2023-02-23T00:13:01;99133.06;;;-4.32;82.12
59487;BME280;45298;54.918;73.504;2023-02-23T00:15:29;99142.50;;;-4.28;82.37
59487;BME280;45298;54.918;73.504;2023-02-23T00:17:58;99074.19;;;-4.74;82.22
59487;BME280;45298;54.918;73.504;2023-02-23T00:20:29;99156.31;;;-4.29;81.94
59487;BME280;45298;54.918;73.504;2023-02-23T00:23:01;99136.78;;;-4.48;82.26
59487;BME280;45298;54.918;73.504;2023-02-23T00:25:31;99177.16;;;-4.36;82.50
59487;BME280;45298;54.918;73.504;2023-02-23T00:27:59;99161.91;;;-4.55;82.19
59487;BME280;45298;54.918;73.504;2023-02-23T00:30:28;99168.75;;;-4.52;82.53
59487;BME280;45298;54.918;73.504;2023-02-23T00:32:57;99183.50;;;-4.58;82.17
59487;BME280;45298;54.918;73.504;2023-02-23T00:35:26;99179.38;;;-4.71;82.57
59487;BME280;45298;54.918;73.504;2023-02-23T00:37:55;99194.09;;;-4.76;82.21
59487;BME280;45298;54.918;73.504;2023-02-23T00:40:23;99194.97;;;-4.77;82.13
59487;BME280;45298;54.918;73.504;2023-02-23T00:42:52;99196.75;;;-4.81;82.28
59487;BME280;45298;54.918;73.504;2023-02-23T00:45:21;99186.63;;;-4.99;81.94
59487;BME280;45298;54.918;73.504;2023-02-23T00:47:49;99170.47;;;-5.17;82.11
59487;BME280;45298;54.918;73.504;2023-02-23T00:50:18;99118.31;;;-5.52;81.48
59487;BME280;45298;54.918;73.504;2023-02-23T00:52:47;99173.25;;;-5.33;81.29
59487;BME280;45298;54.918;73.504;2023-02-23T00:55:15;99203.31;;;-5.24;82.08
59487;BME280;45298;54.918;73.504;2023-02-23T00:57:44;99215.47;;;-5.35;82.28
59487;BME280;45298;54.918;73.504;2023-02-23T01:00:16;99203.59;;;-5.52;82.21
59487;BME280;45298;54.918;73.504;2023-02-23T01:02:47;99230.38;;;-5.59;82.30
59487;BME280;45298;54.918;73.504;2023-02-23T01:05:16;99207.28;;;-5.78;81.73
59487;BME280;45298;54.918;73.504;2023-02-23T01:07:45;99222.88;;;-5.87;82.09
59487;BME280;45298;54.918;73.504;2023-02-23T01:10:14;99239.28;;;-5.93;82.55
59487;BME280;45298;54.918;73.504;2023-02-23T01:12:48;99229.91;;;-6.01;81.78
59487;BME280;45298;54.918;73.504;2023-02-23T01:15:19;99128.81;;;-6.59;82.10
59487;BME280;45298;54.918;73.504;2023-02-23T01:17:48;99205.84;;;-6.07;82.30
59487;BME280;45298;54.918;73.504;2023-02-23T01:20:17;99199.00;;;-6.14;81.54
59487;BME280;45298;54.918;73.504;2023-02-23T01:22:49;99217.81;;;-5.99;81.23
59487;BME280;45298;54.918;73.504;2023-02-23T01:25:19;99183.56;;;-6.22;81.73
59487;BME280;45298;54.918;73.504;2023-02-23T01:27:48;99174.19;;;-6.30;81.32
59487;BME280;45298;54.918;73.504;2023-02-23T01:30:16;99202.50;;;-6.21;80.92
59487;BME280;45298;54.918;73.504;2023-02-23T01:32:45;99230.00;;;-6.17;81.18
59487;BME280;45298;54.918;73.504;2023-02-23T01:35:14;99200.94;;;-6.44;81.02
59487;BME280;45298;54.918;73.504;2023-02-23T01:37:43;99190.69;;;-6.55;80.86
59487;BME280;45298;54.918;73.504;2023-02-23T01:40:18;99205.25;;;-6.46;82.13
59487;BME280;45298;54.918;73.504;2023-02-23T01:42:59;99219.03;;;-6.47;81.33
59487;BME280;45298;54.918;73.504;2023-02-23T01:45:35;99250.91;;;-6.57;81.87
59487;BME280;45298;54.918;73.504;2023-02-23T01:50:50;99252.75;;;-6.84;81.24
59487;BME280;45298;54.918;73.504;2023-02-23T01:53:20;99243.38;;;-7.07;82.43
59487;BME280;45298;54.918;73.504;2023-02-23T01:55:53;99248.53;;;-7.07;81.43
59487;BME280;45298;54.918;73.504;2023-02-23T01:58:25;99239.13;;;-7.20;82.70
59487;BME280;45298;54.918;73.504;2023-02-23T02:00:56;99215.97;;;-7.40;82.48
59487;BME280;45298;54.918;73.504;2023-02-23T02:04:14;99225.41;;;-7.35;81.95
59487;BME280;45298;54.918;73.504;2023-02-23T02:06:19;99230.53;;;-7.35;82.74
59487;BME280;45298;54.918;73.504;2023-02-23T02:08:54;99234.03;;;-7.39;82.78
59487;BME280;45298;54.918;73.504;2023-02-23T02:11:24;99175.72;;;-7.91;83.19
59487;BME280;45298;54.918;73.504;2023-02-23T02:14:07;99285.53;;;-7.42;82.89
59487;BME280;45298;54.918;73.504;2023-02-23T02:16:55;99276.09;;;-7.51;82.05
59487;BME280;45298;54.918;73.504;2023-02-23T02:19:59;99289.00;;;-7.59;82.26
59487;BME280;45298;54.918;73.504;2023-02-23T02:31:42;99275.25;;;-7.73;83.35
59487;BME280;45298;54.918;73.504;2023-02-23T02:40:35;99295.81;;;-7.33;83.22
59487;BME280;45298;54.918;73.504;2023-02-23T02:43:17;99288.94;;;-7.28;82.21
59487;BME280;45298;54.918;73.504;2023-02-23T02:45:55;99281.19;;;-7.20;83.31
59487;BME280;45298;54.918;73.504;2023-02-23T02:48:45;99304.34;;;-6.92;82.83
59487;BME280;45298;54.918;73.504;2023-02-23T02:51:26;99309.44;;;-6.83;82.96
59487;BME280;45298;54.918;73.504;2023-02-23T02:57:01;99318.81;;;-6.54;83.04
59487;BME280;45298;54.918;73.504;2023-02-23T02:59:44;99314.50;;;-6.50;82.25
59487;BME280;45298;54.918;73.504;2023-02-23T03:02:34;99188.41;;;-7.14;82.15
59487;BME280;45298;54.918;73.504;2023-02-23T03:05:38;99310.94;;;-6.21;82.06
59487;BME280;45298;54.918;73.504;2023-02-23T03:08:47;99311.66;;;-6.00;82.03
59487;BME280;45298;54.918;73.504;2023-02-23T03:11:46;99291.88;;;-6.01;82.46
59487;BME280;45298;54.918;73.504;2023-02-23T03:17:56;99350.00;;;-5.48;82.38
59487;BME280;45298;54.918;73.504;2023-02-23T03:20:51;99334.41;;;-5.38;82.27
59487;BME280;45298;54.918;73.504;2023-02-23T03:29:39;99338.31;;;-4.94;82.04
59487;BME280;45298;54.918;73.504;2023-02-23T03:32:46;99341.59;;;-4.79;81.77
59487;BME280;45298;54.918;73.504;2023-02-23T03:35:50;99356.09;;;-4.63;81.32
59487;BME280;45298;54.918;73.504;2023-02-23T03:42:08;99304.16;;;-3.85;79.78
59487;BME280;45298;54.918;73.504;2023-02-23T03:44:58;99297.47;;;-3.45;78.92
59487;BME280;45298;54.918;73.504;2023-02-23T03:47:48;99289.91;;;-2.63;77.42
59487;BME280;45298;54.918;73.504;2023-02-23T03:50:44;99244.16;;;-1.89;74.58
59487;BME280;45298;54.918;73.504;2023-02-23T03:53:43;99278.50;;;-1.40;73.15
59487;BME280;45298;54.918;73.504;2023-02-23T03:56:32;99294.75;;;-1.68;73.93
59487;BME280;45298;54.918;73.504;2023-02-23T03:59:24;99237.13;;;-2.23;74.74
59487;BME280;45298;54.918;73.504;2023-02-23T04:02:18;99238.16;;;-2.30;74.79
59487;BME280;45298;54.918;73.504;2023-02-23T04:05:10;99234.75;;;-2.32;74.87
59487;BME280;45298;54.918;73.504;2023-02-23T04:08:02;99194.66;;;-2.60;74.61
59487;BME280;45298;54.918;73.504;2023-02-23T04:10:56;99268.69;;;-2.41;74.59
59487;BME280;45298;54.918;73.504;2023-02-23T04:13:48;99263.94;;;-2.62;74.80
59487;BME280;45298;54.918;73.504;2023-02-23T04:16:20;99256.19;;;-2.65;74.57
59487;BME280;45298;54.918;73.504;2023-02-23T04:18:49;99290.28;;;-2.39;74.13
59487;BME280;45298;54.918;73.504;2023-02-23T04:21:19;99287.59;;;-2.35;73.47
59487;BME280;45298;54.918;73.504;2023-02-23T04:23:47;99288.84;;;-2.12;72.87
59487;BME280;45298;54.918;73.504;2023-02-23T04:26:16;99258.00;;;-2.28;72.63
59487;BME280;45298;54.918;73.504;2023-02-23T04:28:48;99235.81;;;-2.43;72.87
59487;BME280;45298;54.918;73.504;2023-02-23T04:31:17;99262.56;;;-2.37;72.82
59487;BME280;45298;54.918;73.504;2023-02-23T04:33:48;99247.03;;;-2.81;72.90
59487;BME280;45298;54.918;73.504;2023-02-23T04:36:16;99268.81;;;-2.90;72.81
59487;BME280;45298;54.918;73.504;2023-02-23T04:38:45;99274.31;;;-3.06;73.20
59487;BME280;45298;54.918;73.504;2023-02-23T04:41:14;99240.13;;;-3.28;73.72
59487;BME280;45298;54.918;73.504;2023-02-23T04:43:43;99181.94;;;-3.61;73.61
59487;BME280;45298;54.918;73.504;2023-02-23T04:46:11;99250.25;;;-3.14;73.43
59487;BME280;45298;54.918;73.504;2023-02-23T04:48:40;99174.78;;;-3.47;73.54
59487;BME280;45298;54.918;73.504;2023-02-23T04:51:09;99237.03;;;-3.01;73.25
59487;BME280;45298;54.918;73.504;2023-02-23T04:53:38;99258.38;;;-2.87;73.22
59487;BME280;45298;54.918;73.504;2023-02-23T04:56:08;99235.25;;;-2.99;73.39
59487;BME280;45298;54.918;73.504;2023-02-23T04:58:36;99203.44;;;-3.08;73.16
59487;BME280;45298;54.918;73.504;2023-02-23T05:01:06;99214.56;;;-3.03;73.70
59487;BME280;45298;54.918;73.504;2023-02-23T05:03:37;99255.59;;;-2.76;73.24
59487;BME280;45298;54.918;73.504;2023-02-23T05:06:05;99209.16;;;-2.92;73.49
59487;BME280;45298;54.918;73.504;2023-02-23T05:08:34;99245.78;;;-2.63;73.19
59487;BME280;45298;54.918;73.504;2023-02-23T05:11:05;99219.91;;;-2.68;72.71
59487;BME280;45298;54.918;73.504;2023-02-23T05:13:34;99235.94;;;-2.47;72.58
59487;BME280;45298;54.918;73.504;2023-02-23T05:16:03;99219.47;;;-2.46;72.45
59487;BME280;45298;54.918;73.504;2023-02-23T05:18:33;99201.75;;;-2.29;72.01
59487;BME280;45298;54.918;73.504;2023-02-23T05:21:07;99203.78;;;-2.04;72.54
59487;BME280;45298;54.918;73.504;2023-02-23T05:23:37;99232.53;;;-1.75;71.70
59487;BME280;45298;54.918;73.504;2023-02-23T05:26:09;99187.94;;;-1.93;71.23
59487;BME280;45298;54.918;73.504;2023-02-23T05:28:40;99235.28;;;-1.80;71.48
59487;BME280;45298;54.918;73.504;2023-02-23T05:31:09;99267.91;;;-1.68;71.91
59487;BME280;45298;54.918;73.504;2023-02-23T05:33:38;99249.03;;;-1.76;71.80
59487;BME280;45298;54.918;73.504;2023-02-23T05:36:15;99184.75;;;-2.06;71.85
59487;BME280;45298;54.918;73.504;2023-02-23T05:38:45;99243.69;;;-1.70;70.91
59487;BME280;45298;54.918;73.504;2023-02-23T05:41:19;99250.63;;;-1.71;70.90
59487;BME280;45298;54.918;73.504;2023-02-23T05:43:49;99272.72;;;-1.53;72.07
59487;BME280;45298;54.918;73.504;2023-02-23T05:46:23;99253.59;;;-1.50;71.16
59487;BME280;45298;54.918;73.504;2023-02-23T05:48:57;99277.13;;;-1.20;70.93
59487;BME280;45298;54.918;73.504;2023-02-23T05:51:29;99280.56;;;-1.19;70.31
59487;BME280;45298;54.918;73.504;2023-02-23T05:53:59;99270.22;;;-1.23;70.84
59487;BME280;45298;54.918;73.504;2023-02-23T05:56:28;99301.84;;;-1.03;69.96
59487;BME280;45298;54.918;73.504;2023-02-23T05:58:59;99276.22;;;-1.19;70.21
59487;BME280;45298;54.918;73.504;2023-02-23T06:01:29;99263.09;;;-1.14;69.88
59487;BME280;45298;54.918;73.504;2023-02-23T06:04:00;99276.50;;;-0.97;69.55
59487;BME280;45298;54.918;73.504;2023-02-23T06:06:34;99284.44;;;-0.70;69.50
59487;BME280;45298;54.918;73.504;2023-02-23T06:09:03;99284.75;;;-0.51;68.72
59487;BME280;45298;54.918;73.504;2023-02-23T06:11:32;99255.13;;;-0.47;68.38
59487;BME280;45298;54.918;73.504;2023-02-23T06:14:01;99229.38;;;-0.57;68.07
59487;BME280;45298;54.918;73.504;2023-02-23T06:16:30;99253.75;;;-0.02;67.70
59487;BME280;45298;54.918;73.504;2023-02-23T06:18:59;99192.16;;;-0.04;66.89
59487;BME280;45298;54.918;73.504;2023-02-23T06:21:28;99222.69;;;0.19;66.25
59487;BME280;45298;54.918;73.504;2023-02-23T06:23:57;99273.34;;;0.66;66.35
59487;BME280;45298;54.918;73.504;2023-02-23T06:26:28;99283.47;;;0.75;66.00
59487;BME280;45298;54.918;73.504;2023-02-23T06:28:57;99245.06;;;0.26;66.42
59487;BME280;45298;54.918;73.504;2023-02-23T06:31:25;99277.53;;;0.70;66.00
59487;BME280;45298;54.918;73.504;2023-02-23T06:33:54;99218.75;;;0.33;65.64
59487;BME280;45298;54.918;73.504;2023-02-23T06:36:23;99262.38;;;0.81;65.28
59487;BME280;45298;54.918;73.504;2023-02-23T06:38:58;99245.75;;;0.84;64.96
59487;BME280;45298;54.918;73.504;2023-02-23T06:41:27;99297.22;;;0.80;65.15
59487;BME280;45298;54.918;73.504;2023-02-23T06:43:56;99288.13;;;0.67;65.39
59487;BME280;45298;54.918;73.504;2023-02-23T06:46:24;99250.81;;;0.63;65.16
59487;BME280;45298;54.918;73.504;2023-02-23T06:48:54;99266.88;;;0.51;65.41
59487;BME280;45298;54.918;73.504;2023-02-23T06:51:23;99284.28;;;0.50;65.63
59487;BME280;45298;54.918;73.504;2023-02-23T06:53:52;99277.31;;;1.03;64.79
59487;BME280;45298;54.918;73.504;2023-02-23T06:56:21;99276.84;;;1.15;64.08
59487;BME280;45298;54.918;73.504;2023-02-23T06:58:50;99269.31;;;0.82;64.61
59487;BME280;45298;54.918;73.504;2023-02-23T07:01:19;99241.94;;;0.42;65.27
59487;BME280;45298;54.918;73.504;2023-02-23T07:03:48;99244.13;;;0.54;65.08
59487;BME280;45298;54.918;73.504;2023-02-23T07:06:17;99230.94;;;0.84;64.57
59487;BME280;45298;54.918;73.504;2023-02-23T07:08:46;99225.84;;;0.81;64.83
59487;BME280;45298;54.918;73.504;2023-02-23T07:11:15;99247.25;;;0.66;65.15
59487;BME280;45298;54.918;73.504;2023-02-23T07:13:46;99226.69;;;0.29;65.42
59487;BME280;45298;54.918;73.504;2023-02-23T07:16:15;99222.19;;;0.35;65.87
59487;BME280;45298;54.918;73.504;2023-02-23T07:18:43;99197.25;;;0.53;65.35
59487;BME280;45298;54.918;73.504;2023-02-23T07:21:12;99194.16;;;0.67;65.20
59487;BME280;45298;54.918;73.504;2023-02-23T07:23:42;99211.72;;;0.62;65.13
59487;BME280;45298;54.918;73.504;2023-02-23T07:26:10;99181.69;;;0.50;65.18
59487;BME280;45298;54.918;73.504;2023-02-23T07:28:43;99207.97;;;0.69;65.07
59487;BME280;45298;54.918;73.504;2023-02-23T07:31:12;99211.91;;;0.81;64.77
59487;BME280;45298;54.918;73.504;2023-02-23T07:33:41;99193.28;;;0.66;65.10
59487;BME280;45298;54.918;73.504;2023-02-23T07:36:10;99189.72;;;0.43;65.35
59487;BME280;45298;54.918;73.504;2023-02-23T07:38:39;99218.38;;;0.45;65.48
59487;BME280;45298;54.918;73.504;2023-02-23T07:41:08;99224.25;;;0.50;65.86
59487;BME280;45298;54.918;73.504;2023-02-23T07:43:38;99168.09;;;0.14;65.72
59487;BME280;45298;54.918;73.504;2023-02-23T07:46:06;99175.09;;;0.12;66.02
59487;BME280;45298;54.918;73.504;2023-02-23T07:48:36;99191.47;;;0.18;66.42
59487;BME280;45298;54.918;73.504;2023-02-23T07:51:11;99202.72;;;0.18;66.47
59487;BME280;45298;54.918;73.504;2023-02-23T07:53:42;99202.78;;;0.17;66.81
59487;BME280;45298;54.918;73.504;2023-02-23T07:56:11;99216.31;;;0.28;67.10
59487;BME280;45298;54.918;73.504;2023-02-23T07:58:42;99200.13;;;0.18;66.75
59487;BME280;45298;54.918;73.504;2023-02-23T08:01:12;99220.44;;;0.35;66.92
59487;BME280;45298;54.918;73.504;2023-02-23T08:03:41;99231.00;;;0.57;66.83
59487;BME280;45298;54.918;73.504;2023-02-23T08:06:16;99217.50;;;0.70;66.97
59487;BME280;45298;54.918;73.504;2023-02-23T08:08:45;99187.00;;;0.72;66.22
59487;BME280;45298;54.918;73.504;2023-02-23T08:11:14;99202.69;;;0.96;66.56
59487;BME280;45298;54.918;73.504;2023-02-23T08:13:43;99189.06;;;0.87;66.14
59487;BME280;45298;54.918;73.504;2023-02-23T08:16:12;99185.66;;;0.85;66.35
59487;BME280;45298;54.918;73.504;2023-02-23T08:18:42;99179.13;;;0.73;66.65
59487;BME280;45298;54.918;73.504;2023-02-23T08:21:11;99182.41;;;0.79;66.82
59487;BME280;45298;54.918;73.504;2023-02-23T08:23:40;99184.59;;;0.91;66.96
59487;BME280;45298;54.918;73.504;2023-02-23T08:26:09;99178.09;;;1.01;66.94
59487;BME280;45298;54.918;73.504;2023-02-23T08:28:39;99175.34;;;1.06;67.17
59487;BME280;45298;54.918;73.504;2023-02-23T08:31:09;99187.50;;;1.07;66.82
59487;BME280;45298;54.918;73.504;2023-02-23T08:33:39;99181.63;;;1.00;66.82
59487;BME280;45298;54.918;73.504;2023-02-23T08:36:08;99133.22;;;0.68;67.18
59487;BME280;45298;54.918;73.504;2023-02-23T08:38:37;99126.88;;;0.50;67.42
59487;BME280;45298;54.918;73.504;2023-02-23T08:41:06;99119.66;;;0.33;68.16
59487;BME280;45298;54.918;73.504;2023-02-23T08:43:35;99093.63;;;0.31;68.16
59487;BME280;45298;54.918;73.504;2023-02-23T08:46:05;99127.41;;;0.59;67.86
59487;BME280;45298;54.918;73.504;2023-02-23T08:48:34;99050.25;;;0.28;68.05
59487;BME280;45298;54.918;73.504;2023-02-23T08:51:03;99090.00;;;0.59;67.64
59487;BME280;45298;54.918;73.504;2023-02-23T08:53:32;99149.44;;;0.76;67.51
59487;BME280;45298;54.918;73.504;2023-02-23T08:56:04;99140.53;;;0.82;67.49
59487;BME280;45298;54.918;73.504;2023-02-23T08:58:34;99152.63;;;0.84;67.69
59487;BME280;45298;54.918;73.504;2023-02-23T09:01:04;99151.88;;;0.81;67.78
59487;BME280;45298;54.918;73.504;2023-02-23T09:03:33;99083.72;;;0.41;67.96
59487;BME280;45298;54.918;73.504;2023-02-23T09:06:10;99141.59;;;0.76;67.95
59487;BME280;45298;54.918;73.504;2023-02-23T09:08:42;99170.88;;;1.08;67.62
59487;BME280;45298;54.918;73.504;2023-02-23T09:11:11;99169.94;;;1.11;67.81
59487;BME280;45298;54.918;73.504;2023-02-23T09:13:39;99162.72;;;0.94;68.00
59487;BME280;45298;54.918;73.504;2023-02-23T09:16:11;99131.38;;;0.70;68.12
59487;BME280;45298;54.918;73.504;2023-02-23T09:18:40;99116.03;;;0.37;68.89
59487;BME280;45298;54.918;73.504;2023-02-23T09:21:15;99124.97;;;0.29;69.01
59487;BME280;45298;54.918;73.504;2023-02-23T09:23:48;99156.59;;;0.45;69.44
59487;BME280;45298;54.918;73.504;2023-02-23T09:26:18;99141.81;;;0.46;69.59
59487;BME280;45298;54.918;73.504;2023-02-23T09:28:49;99109.22;;;0.33;69.88
59487;BME280;45298;54.918;73.504;2023-02-23T09:31:20;99125.72;;;0.33;70.22
59487;BME280;45298;54.918;73.504;2023-02-23T09:33:51;99137.81;;;0.36;70.65
59487;BME280;45298;54.918;73.504;2023-02-23T09:36:24;99118.97;;;0.27;71.21
59487;BME280;45298;54.918;73.504;2023-02-23T09:38:54;99102.34;;;0.05;72.03
59487;BME280;45298;54.918;73.504;2023-02-23T09:49:16;99128.16;;;-0.13;73.80
59487;BME280;45298;54.918;73.504;2023-02-23T09:51:50;99106.09;;;-0.29;74.95
59487;BME280;45298;54.918;73.504;2023-02-23T09:54:28;99124.03;;;-0.20;75.22
59487;BME280;45298;54.918;73.504;2023-02-23T09:57:01;99095.81;;;-0.34;75.44
59487;BME280;45298;54.918;73.504;2023-02-23T09:59:35;99093.78;;;-0.53;76.22
59487;BME280;45298;54.918;73.504;2023-02-23T10:02:21;99120.63;;;-0.49;77.40
59487;BME280;45298;54.918;73.504;2023-02-23T10:05:11;99113.88;;;-0.56;77.60
59487;BME280;45298;54.918;73.504;2023-02-23T10:07:44;99109.66;;;-0.61;77.93
59487;BME280;45298;54.918;73.504;2023-02-23T10:13:25;99083.31;;;-0.78;79.07
59487;BME280;45298;54.918;73.504;2023-02-23T10:18:53;99073.78;;;-0.79;79.23
59487;BME280;45298;54.918;73.504;2023-02-23T10:21:40;99090.13;;;-0.74;78.61
59487;BME280;45298;54.918;73.504;2023-02-23T10:24:22;99067.78;;;-0.81;78.85
59487;BME280;45298;54.918;73.504;2023-02-23T10:26:59;99053.75;;;-0.77;79.24
59487;BME280;45298;54.918;73.504;2023-02-23T10:29:42;99055.47;;;-0.76;79.98
59487;BME280;45298;54.918;73.504;2023-02-23T10:32:24;99058.78;;;-0.71;79.89
59487;BME280;45298;54.918;73.504;2023-02-23T10:34:55;99083.38;;;-0.53;79.59
59487;BME280;45298;54.918;73.504;2023-02-23T10:37:24;99078.31;;;-0.57;79.86
59487;BME280;45298;54.918;73.504;2023-02-23T10:39:54;99075.09;;;-0.66;80.06
59487;BME280;45298;54.918;73.504;2023-02-23T10:42:25;99053.81;;;-0.79;80.80
59487;BME280;45298;54.918;73.504;2023-02-23T10:44:59;99047.84;;;-0.82;80.25
59487;BME280;45298;54.918;73.504;2023-02-23T10:47:31;99054.22;;;-0.64;80.34
59487;BME280;45298;54.918;73.504;2023-02-23T10:50:01;99050.50;;;-0.57;80.77
59487;BME280;45298;54.918;73.504;2023-02-23T10:52:45;99033.31;;;-0.61;80.74
59487;BME280;45298;54.918;73.504;2023-02-23T10:55:24;99013.50;;;-0.67;80.60
59487;BME280;45298;54.918;73.504;2023-02-23T10:58:18;99005.84;;;-0.71;80.91
59487;BME280;45298;54.918;73.504;2023-02-23T11:00:59;98995.38;;;-0.70;80.88
59487;BME280;45298;54.918;73.504;2023-02-23T11:03:35;99009.88;;;-0.63;80.83
59487;BME280;45298;54.918;73.504;2023-02-23T11:08:54;99012.50;;;-0.63;81.03
59487;BME280;45298;54.918;73.504;2023-02-23T11:11:27;99027.03;;;-0.55;80.95
59487;BME280;45298;54.918;73.504;2023-02-23T11:13:56;99010.00;;;-0.66;81.05
59487;BME280;45298;54.918;73.504;2023-02-23T11:16:30;99005.00;;;-0.72;81.63
59487;BME280;45298;54.918;73.504;2023-02-23T11:19:56;98977.75;;;-0.88;81.62
59487;BME280;45298;54.918;73.504;2023-02-23T11:22:18;98978.03;;;-0.98;82.19
59487;BME280;45298;54.918;73.504;2023-02-23T11:24:54;99005.47;;;-0.87;81.79
59487;BME280;45298;54.918;73.504;2023-02-23T11:27:25;98973.84;;;-1.02;82.65
59487;BME280;45298;54.918;73.504;2023-02-23T11:29:56;99008.03;;;-0.86;82.40
59487;BME280;45298;54.918;73.504;2023-02-23T11:32:29;98986.84;;;-1.02;82.54
59487;BME280;45298;54.918;73.504;2023-02-23T11:37:49;98983.53;;;-1.07;83.23
59487;BME280;45298;54.918;73.504;2023-02-23T11:40:24;98986.03;;;-1.04;83.55
59487;BME280;45298;54.918;73.504;2023-02-23T11:45:48;98931.72;;;-1.42;84.17
59487;BME280;45298;54.918;73.504;2023-02-23T11:48:26;98974.31;;;-1.17;83.71
59487;BME280;45298;54.918;73.504;2023-02-23T11:50:56;98971.72;;;-1.17;84.31
59487;BME280;45298;54.918;73.504;2023-02-23T11:53:30;98971.63;;;-1.14;84.30
59487;BME280;45298;54.918;73.504;2023-02-23T11:56:01;98980.91;;;-1.07;84.17
59487;BME280;45298;54.918;73.504;2023-02-23T11:58:49;98965.72;;;-1.19;84.45
59487;BME280;45298;54.918;73.504;2023-02-23T12:01:41;98987.06;;;-1.08;84.92
59487;BME280;45298;54.918;73.504;2023-02-23T12:09:56;98964.81;;;-1.18;84.94
59487;BME280;45298;54.918;73.504;2023-02-23T12:12:28;98937.47;;;-1.32;85.16
59487;BME280;45298;54.918;73.504;2023-02-23T12:15:03;98953.34;;;-1.13;85.36
59487;BME280;45298;54.918;73.504;2023-02-23T12:17:44;98934.00;;;-1.32;85.60
59487;BME280;45298;54.918;73.504;2023-02-23T12:20:20;98951.72;;;-1.15;85.81
59487;BME280;45298;54.918;73.504;2023-02-23T12:22:59;98921.91;;;-1.33;86.71
59487;BME280;45298;54.918;73.504;2023-02-23T12:25:39;98941.41;;;-1.18;86.40
59487;BME280;45298;54.918;73.504;2023-02-23T12:28:26;98947.50;;;-1.19;86.31
59487;BME280;45298;54.918;73.504;2023-02-23T12:33:35;98940.59;;;-1.20;87.31
59487;BME280;45298;54.918;73.504;2023-02-23T12:39:05;98923.38;;;-1.25;86.96
59487;BME280;45298;54.918;73.504;2023-02-23T12:41:42;98939.59;;;-1.16;87.11
59487;BME280;45298;54.918;73.504;2023-02-23T12:44:36;98919.69;;;-1.17;87.27
59487;BME280;45298;54.918;73.504;2023-02-23T12:47:12;98928.47;;;-1.22;88.22
59487;BME280;45298;54.918;73.504;2023-02-23T12:49:52;98875.31;;;-1.40;87.58
59487;BME280;45298;54.918;73.504;2023-02-23T12:52:28;98893.16;;;-1.29;87.29
59487;BME280;45298;54.918;73.504;2023-02-23T12:54:59;98914.47;;;-1.17;87.38
59487;BME280;45298;54.918;73.504;2023-02-23T12:57:41;98910.97;;;-1.16;88.04
59487;BME280;45298;54.918;73.504;2023-02-23T13:11:38;98858.44;;;-1.28;89.10
59487;BME280;45298;54.918;73.504;2023-02-23T13:17:12;98807.22;;;-1.53;88.75
59487;BME280;45298;54.918;73.504;2023-02-23T13:19:50;98801.84;;;-1.48;89.16
59487;BME280;45298;54.918;73.504;2023-02-23T13:25:03;98865.66;;;-1.09;89.33
59487;BME280;45298;54.918;73.504;2023-02-23T13:27:50;98860.44;;;-1.09;88.97
59487;BME280;45298;54.918;73.504;2023-02-23T13:30:20;98813.44;;;-1.31;89.61
59487;BME280;45298;54.918;73.504;2023-02-23T13:32:49;98860.22;;;-1.03;89.45
59487;BME280;45298;54.918;73.504;2023-02-23T13:35:19;98889.13;;;-0.85;89.32
59487;BME280;45298;54.918;73.504;2023-02-23T13:38:07;98864.22;;;-0.93;89.24
59487;BME280;45298;54.918;73.504;2023-02-23T13:43:52;98841.59;;;-0.90;89.91
59487;BME280;45298;54.918;73.504;2023-02-23T13:46:44;98833.09;;;-0.96;89.58
59487;BME280;45298;54.918;73.504;2023-02-23T13:49:37;98854.28;;;-0.81;90.09
59487;BME280;45298;54.918;73.504;2023-02-23T13:55:00;98825.22;;;-0.94;90.16
59487;BME280;45298;54.918;73.504;2023-02-23T13:57:34;98815.69;;;-0.95;89.85
59487;BME280;45298;54.918;73.504;2023-02-23T14:00:18;98850.78;;;-0.80;89.39
59487;BME280;45298;54.918;73.504;2023-02-23T14:02:47;98835.25;;;-0.83;90.49
59487;BME280;45298;54.918;73.504;2023-02-23T14:05:25;98813.16;;;-0.97;90.05
59487;BME280;45298;54.918;73.504;2023-02-23T14:08:03;98811.38;;;-0.95;90.27
59487;BME280;45298;54.918;73.504;2023-02-23T14:10:39;98815.44;;;-0.87;90.77
59487;BME280;45298;54.918;73.504;2023-02-23T14:21:44;98790.53;;;-0.95;91.13
59487;BME280;45298;54.918;73.504;2023-02-23T14:29:26;98772.41;;;-0.98;90.84
59487;BME280;45298;54.918;73.504;2023-02-23T14:32:15;98798.81;;;-0.83;90.92
59487;BME280;45298;54.918;73.504;2023-02-23T14:34:58;98772.31;;;-0.95;90.78
59487;BME280;45298;54.918;73.504;2023-02-23T14:37:37;98789.25;;;-0.83;91.10
59487;BME280;45298;54.918;73.504;2023-02-23T14:40:13;98759.34;;;-0.96;91.34
59487;BME280;45298;54.918;73.504;2023-02-23T14:42:52;98777.84;;;-0.79;91.41
59487;BME280;45298;54.918;73.504;2023-02-23T14:45:36;98751.31;;;-0.90;91.64
59487;BME280;45298;54.918;73.504;2023-02-23T14:48:11;98734.88;;;-0.90;91.60
59487;BME280;45298;54.918;73.504;2023-02-23T14:50:41;98685.50;;;-1.17;91.64
59487;BME280;45298;54.918;73.504;2023-02-23T14:53:18;98739.84;;;-0.84;92.04
59487;BME280;45298;54.918;73.504;2023-02-23T14:55:49;98737.81;;;-0.76;92.25
59487;BME280;45298;54.918;73.504;2023-02-23T14:58:26;98738.44;;;-0.69;91.97
59487;BME280;45298;54.918;73.504;2023-02-23T15:00:56;98740.75;;;-0.62;92.04
59487;BME280;45298;54.918;73.504;2023-02-23T15:03:28;98725.91;;;-0.59;92.22
59487;BME280;45298;54.918;73.504;2023-02-23T15:05:59;98714.81;;;-0.65;92.31
59487;BME280;45298;54.918;73.504;2023-02-23T15:08:41;98720.69;;;-0.59;91.96
59487;BME280;45298;54.918;73.504;2023-02-23T15:11:13;98643.13;;;-0.97;91.95
59487;BME280;45298;54.918;73.504;2023-02-23T15:13:47;98703.38;;;-0.61;92.27